Time;durP1;ratioP1;P1;durP2;ratioP2;P2;SDS_P1;SDS_P2;PMS_P1;PMS_P2;Temp;Humidity;BMP_temperature;BMP_pressure;BME280_temperature;BME280_humidity;BME280_pressure;Samples;Min_cycle;Max_cycle;Signal;HPM_P1;HPM_P2
2023/03/19 00:00:03;;;;;;;21.30;3.33;;;8.40;99.90;;;;;;5090101;28;20185;-66
2023/03/19 00:02:28;;;;;;;6.73;2.50;;;8.40;99.90;;;;;;5087209;28;20738;-66
2023/03/19 00:04:54;;;;;;;5.63;3.13;;;8.40;99.90;;;;;;5078289;28;20454;-66
2023/03/19 00:07:20;;;;;;;6.87;3.20;;;8.40;99.90;;;;;;5074016;28;20237;-66
2023/03/19 00:09:47;;;;;;;5.50;2.47;;;8.40;99.90;;;;;;5071932;28;20951;-66
2023/03/19 00:12:12;;;;;;;5.10;2.20;;;8.30;99.90;;;;;;5085098;28;20180;-66
2023/03/19 00:14:38;;;;;;;7.53;2.47;;;8.40;99.90;;;;;;5089309;28;20520;-66
2023/03/19 00:17:04;;;;;;;7.20;3.07;;;8.40;99.90;;;;;;5089658;28;20191;-66
2023/03/19 00:19:29;;;;;;;4.93;2.20;;;8.40;99.90;;;;;;5089734;28;20180;-66
2023/03/19 00:21:55;;;;;;;2.83;1.50;;;8.40;99.90;;;;;;5077742;28;20214;-66
2023/03/19 00:24:21;;;;;;;6.07;2.20;;;8.30;99.90;;;;;;5078168;28;20223;-66
2023/03/19 00:26:47;;;;;;;6.03;3.20;;;8.40;99.90;;;;;;5089707;28;20641;-66
2023/03/19 00:29:13;;;;;;;7.87;2.87;;;8.40;99.90;;;;;;5089151;28;20183;-66
2023/03/19 00:31:40;;;;;;;4.43;2.67;;;8.40;99.90;;;;;;5074258;28;20173;-66
2023/03/19 00:34:07;;;;;;;5.60;1.90;;;8.40;99.90;;;;;;5069728;28;20956;-66
2023/03/19 00:36:32;;;;;;;6.00;2.50;;;8.40;99.90;;;;;;5085315;28;20798;-66
2023/03/19 00:38:58;;;;;;;3.53;1.70;;;8.40;99.90;;;;;;5079563;28;20410;-67
2023/03/19 00:41:24;;;;;;;3.53;1.50;;;8.40;99.90;;;;;;5089510;28;20250;-66
2023/03/19 00:43:54;;;;;;;3.33;1.77;;;8.40;99.90;;;;;;5080170;28;20277;-66
2023/03/19 00:46:20;;;;;;;3.73;1.67;;;8.40;99.90;;;;;;5085277;28;20263;-66
2023/03/19 00:48:46;;;;;;;2.50;1.50;;;8.40;99.90;;;;;;5089287;28;20514;-66
2023/03/19 00:51:11;;;;;;;7.47;2.03;;;8.40;99.90;;;;;;5075799;28;20185;-66
2023/03/19 00:53:38;;;;;;;2.50;1.20;;;8.40;99.90;;;;;;5087584;28;20272;-66
2023/03/19 00:56:06;;;;;;;2.57;1.20;;;8.40;99.90;;;;;;5087006;28;20176;-66
2023/03/19 00:58:32;;;;;;;2.90;0.90;;;8.40;99.90;;;;;;5080680;28;20796;-66
2023/03/19 01:00:57;;;;;;;3.00;1.63;;;8.50;99.90;;;;;;5093324;28;20410;-66
2023/03/19 01:03:23;;;;;;;5.50;1.67;;;8.50;99.90;;;;;;5083428;28;20423;-67
2023/03/19 01:05:49;;;;;;;2.90;1.30;;;8.50;99.90;;;;;;5088661;28;20195;-66
2023/03/19 01:08:16;;;;;;;3.93;1.30;;;8.40;99.90;;;;;;5077683;28;20181;-66
2023/03/19 01:10:43;;;;;;;4.33;1.60;;;8.50;99.90;;;;;;5074516;28;20427;-66
2023/03/19 01:13:09;;;;;;;2.37;1.40;;;8.60;99.90;;;;;;5081405;28;20418;-66
2023/03/19 01:15:37;;;;;;;5.00;2.23;;;8.70;99.90;;;;;;5092970;28;20742;-66
2023/03/19 01:18:02;;;;;;;2.13;1.07;;;8.90;99.60;;;;;;5092873;28;20613;-66
2023/03/19 01:20:28;;;;;;;4.37;2.17;;;9.10;98.50;;;;;;5092728;28;20509;-66
2023/03/19 01:22:54;;;;;;;4.20;1.67;;;9.40;97.80;;;;;;5072775;28;20213;-66
2023/03/19 01:25:20;;;;;;;3.00;1.57;;;9.40;97.60;;;;;;5075125;28;20201;-66
2023/03/19 01:27:46;;;;;;;4.07;2.03;;;9.50;97.50;;;;;;5083532;28;20419;-66
2023/03/19 01:30:12;;;;;;;2.77;1.80;;;9.50;97.60;;;;;;5088440;28;20476;-66
2023/03/19 01:32:38;;;;;;;3.67;1.70;;;9.50;98.10;;;;;;5082525;28;20177;-66
2023/03/19 01:35:04;;;;;;;4.60;1.53;;;9.50;99.30;;;;;;5075472;28;20260;-66
2023/03/19 01:37:29;;;;;;;3.97;1.23;;;9.40;99.90;;;;;;5082398;28;20189;-66
2023/03/19 01:39:55;;;;;;;5.50;1.30;;;9.30;99.90;;;;;;5085615;28;20858;-65
2023/03/19 01:42:21;;;;;;;3.87;1.60;;;9.20;99.90;;;;;;5081724;28;20265;-66
2023/03/19 01:44:46;;;;;;;2.77;1.57;;;9.10;99.90;;;;;;5078468;28;20214;-66
2023/03/19 01:47:23;;;;;;;2.07;1.37;;;8.90;99.90;;;;;;5092239;28;20192;-65
2023/03/19 01:49:53;;;;;;;2.60;1.57;;;8.80;99.90;;;;;;5091652;28;20301;-65
2023/03/19 01:52:20;;;;;;;2.63;1.27;;;8.70;99.90;;;;;;5092144;28;20880;-66
2023/03/19 01:54:47;;;;;;;5.17;1.87;;;8.60;99.90;;;;;;5090544;28;20461;-65
2023/03/19 01:57:15;;;;;;;6.07;2.20;;;8.50;99.90;;;;;;5092243;28;20509;-65
2023/03/19 01:59:46;;;;;;;6.17;1.70;;;8.60;99.90;;;;;;5077529;28;20418;-65
2023/03/19 02:02:30;;;;;;;2.17;1.57;;;8.40;99.90;;;;;;5090958;28;20434;-65
2023/03/19 02:05:04;;;;;;;5.13;1.93;;;8.30;99.90;;;;;;5076660;28;20982;-65
2023/03/19 02:07:32;;;;;;;6.00;1.83;;;8.20;99.90;;;;;;5078903;28;20438;-65
2023/03/19 02:10:02;;;;;;;3.80;2.40;;;8.20;99.90;;;;;;5072855;28;20451;-65
2023/03/19 02:12:27;;;;;;;3.00;1.83;;;8.20;99.90;;;;;;5085531;28;20406;-65
2023/03/19 02:14:53;;;;;;;3.20;1.93;;;8.10;99.90;;;;;;5081347;28;20415;-65
2023/03/19 02:17:20;;;;;;;3.00;1.80;;;8.10;99.90;;;;;;5088431;28;20180;-65
2023/03/19 02:20:15;;;;;;;9.97;3.47;;;8.10;99.90;;;;;;5091780;28;20563;-65
2023/03/19 02:22:50;;;;;;;3.97;2.33;;;8.10;99.90;;;;;;5078661;28;20429;-65
2023/03/19 02:25:26;;;;;;;3.97;1.90;;;8.00;99.90;;;;;;5091027;28;20497;-64
2023/03/19 02:27:52;;;;;;;2.73;1.60;;;8.00;99.90;;;;;;5091217;28;20890;-64
2023/03/19 02:30:21;;;;;;;8.13;2.37;;;8.00;99.90;;;;;;5091530;28;20566;-64
2023/03/19 02:32:47;;;;;;;2.40;1.53;;;8.00;99.90;;;;;;5079527;28;20422;-64
2023/03/19 02:35:13;;;;;;;3.70;1.80;;;8.00;99.90;;;;;;5075371;28;20418;-64
2023/03/19 02:37:38;;;;;;;2.80;1.53;;;8.00;99.90;;;;;;5080146;28;20638;-64
2023/03/19 02:40:10;;;;;;;3.40;1.73;;;8.00;99.90;;;;;;5089127;28;20248;-64
2023/03/19 02:42:35;;;;;;;3.93;2.20;;;8.00;99.90;;;;;;5090575;28;20206;-65
2023/03/19 02:45:01;;;;;;;7.40;2.20;;;8.00;99.90;;;;;;5091194;28;20548;-64
2023/03/19 02:47:26;;;;;;;5.53;2.47;;;8.00;99.90;;;;;;5091570;28;20639;-64
2023/03/19 02:49:52;;;;;;;4.27;2.23;;;8.00;99.90;;;;;;5086245;28;20181;-65
2023/03/19 02:52:19;;;;;;;3.13;1.53;;;8.00;99.90;;;;;;5082558;28;20175;-64
2023/03/19 02:54:45;;;;;;;3.27;1.70;;;8.00;99.90;;;;;;5077494;28;20433;-64
2023/03/19 02:57:11;;;;;;;3.07;1.90;;;8.00;99.90;;;;;;5091269;28;20844;-65
2023/03/19 02:59:37;;;;;;;9.13;2.37;;;8.00;99.90;;;;;;5090862;28;20422;-65
2023/03/19 03:02:03;;;;;;;2.70;1.70;;;8.00;99.90;;;;;;5090777;28;20927;-65
2023/03/19 03:04:30;;;;;;;5.23;2.70;;;7.90;99.90;;;;;;5083315;28;20454;-64
2023/03/19 03:06:56;;;;;;;3.93;2.27;;;7.90;99.90;;;;;;5086421;28;20419;-64
2023/03/19 03:09:22;;;;;;;3.07;1.83;;;7.90;99.90;;;;;;5072119;28;20418;-65
2023/03/19 03:11:48;;;;;;;4.00;1.93;;;7.90;99.90;;;;;;5082331;28;20411;-64
2023/03/19 03:14:14;;;;;;;4.73;2.50;;;8.00;99.90;;;;;;5089847;28;20185;-65
2023/03/19 03:16:39;;;;;;;4.03;1.93;;;8.00;99.90;;;;;;5090767;28;20184;-64
2023/03/19 03:19:05;;;;;;;4.20;1.90;;;8.00;99.90;;;;;;5089916;28;20214;-64
2023/03/19 03:21:32;;;;;;;5.53;2.23;;;8.00;99.90;;;;;;5079630;28;20284;-65
2023/03/19 03:23:58;;;;;;;4.00;2.43;;;8.00;99.90;;;;;;5088082;28;20454;-64
2023/03/19 03:26:24;;;;;;;8.87;2.50;;;8.00;99.90;;;;;;5090470;28;20505;-64
2023/03/19 03:28:49;;;;;;;9.00;3.30;;;8.00;99.90;;;;;;5090093;28;20173;-64
2023/03/19 03:31:15;;;;;;;3.40;2.07;;;8.00;99.90;;;;;;5090588;28;20688;-65
2023/03/19 03:33:41;;;;;;;3.53;1.93;;;7.90;99.90;;;;;;5071285;28;20173;-67
2023/03/19 03:36:07;;;;;;;5.27;2.57;;;7.90;99.90;;;;;;5081928;28;20181;-67
2023/03/19 03:38:33;;;;;;;3.80;2.00;;;7.90;99.90;;;;;;5066258;28;20165;-67
2023/03/19 03:40:59;;;;;;;4.80;2.17;;;7.90;99.90;;;;;;5063707;28;20451;-67
2023/03/19 03:43:24;;;;;;;6.07;3.10;;;7.90;99.90;;;;;;5067934;28;20828;-64
2023/03/19 03:45:50;;;;;;;7.60;3.40;;;7.90;99.90;;;;;;5070063;28;20185;-64
2023/03/19 03:48:16;;;;;;;3.73;1.90;;;7.90;99.90;;;;;;5074371;28;20188;-65
2023/03/19 03:50:42;;;;;;;10.33;2.20;;;7.90;99.90;;;;;;5078658;28;20189;-64
2023/03/19 03:53:08;;;;;;;5.30;2.50;;;8.00;99.90;;;;;;5074163;28;20421;-64
2023/03/19 03:55:35;;;;;;;4.10;2.57;;;8.00;99.90;;;;;;5089676;28;20464;-64
2023/03/19 03:58:01;;;;;;;5.00;2.13;;;8.00;99.90;;;;;;5089483;28;20469;-64
2023/03/19 04:00:27;;;;;;;3.53;2.00;;;8.00;99.90;;;;;;5078656;28;20470;-64
2023/03/19 04:02:53;;;;;;;4.00;2.80;;;8.00;99.90;;;;;;5082661;28;20443;-65
2023/03/19 04:05:18;;;;;;;4.17;2.03;;;8.00;99.90;;;;;;5081548;28;20243;-64
2023/03/19 04:07:44;;;;;;;22.23;1.93;;;8.00;99.90;;;;;;5078703;28;20230;-65
2023/03/19 04:10:10;;;;;;;2.23;1.67;;;8.00;99.90;;;;;;5071052;28;20204;-64
2023/03/19 04:12:38;;;;;;;3.47;1.23;;;8.00;99.90;;;;;;5087105;28;20285;-64
2023/03/19 04:15:05;;;;;;;5.00;1.70;;;8.10;99.90;;;;;;5089795;28;20428;-64
2023/03/19 04:17:31;;;;;;;3.57;1.70;;;8.10;99.90;;;;;;5089514;28;20672;-64
2023/03/19 04:19:56;;;;;;;3.40;1.93;;;8.10;99.90;;;;;;5090029;28;20915;-64
2023/03/19 04:22:22;;;;;;;3.10;1.20;;;8.10;99.90;;;;;;5079272;28;20204;-65
2023/03/19 04:24:48;;;;;;;3.83;2.23;;;8.10;99.90;;;;;;5089633;28;20226;-66
2023/03/19 04:27:13;;;;;;;11.60;2.50;;;8.10;99.90;;;;;;5084804;28;20177;-65
2023/03/19 04:29:39;;;;;;;5.00;1.70;;;8.10;99.90;;;;;;5081313;28;20217;-65
2023/03/19 04:32:05;;;;;;;4.73;2.27;;;8.10;99.90;;;;;;5084257;28;20181;-65
2023/03/19 04:34:31;;;;;;;3.97;2.07;;;8.10;99.90;;;;;;5081525;28;20314;-65
2023/03/19 04:36:57;;;;;;;4.03;1.73;;;8.20;99.90;;;;;;5090189;28;20505;-65
2023/03/19 04:39:23;;;;;;;2.33;1.37;;;8.10;99.90;;;;;;5086335;28;20202;-65
2023/03/19 04:41:49;;;;;;;9.00;2.40;;;8.10;99.90;;;;;;5093616;28;20475;-65
2023/03/19 04:44:14;;;;;;;5.23;2.37;;;8.10;99.90;;;;;;5093249;28;20454;-65
2023/03/19 04:46:40;;;;;;;3.63;1.97;;;8.10;99.90;;;;;;5093962;28;20180;-66
2023/03/19 04:49:06;;;;;;;11.03;2.03;;;8.00;99.90;;;;;;5093585;28;20184;-66
2023/03/19 04:51:32;;;;;;;4.43;1.43;;;8.00;99.90;;;;;;5087615;28;20419;-65
2023/03/19 04:53:58;;;;;;;5.27;2.70;;;8.00;99.90;;;;;;5085879;28;20638;-66
2023/03/19 04:56:24;;;;;;;3.00;1.73;;;8.00;99.90;;;;;;5093394;28;20180;-65
2023/03/19 04:58:50;;;;;;;4.80;1.67;;;8.00;99.90;;;;;;5093084;28;20621;-65
2023/03/19 05:01:16;;;;;;;3.10;1.77;;;8.10;99.90;;;;;;5093495;28;20202;-66
2023/03/19 05:03:41;;;;;;;3.67;2.20;;;8.10;99.90;;;;;;5092795;28;20577;-65
2023/03/19 05:06:07;;;;;;;2.83;1.50;;;8.10;99.90;;;;;;5093702;28;20533;-66
2023/03/19 05:08:33;;;;;;;5.30;1.83;;;8.00;99.90;;;;;;5075093;28;20185;-65
2023/03/19 05:10:58;;;;;;;2.60;1.70;;;8.10;99.90;;;;;;5082318;28;20181;-66
2023/03/19 05:13:24;;;;;;;3.37;1.97;;;8.00;99.90;;;;;;5092629;28;20704;-66
2023/03/19 05:15:53;;;;;;;2.33;1.70;;;8.10;99.90;;;;;;5093445;28;20204;-66
2023/03/19 05:18:19;;;;;;;6.33;2.93;;;8.00;99.90;;;;;;5093557;28;20708;-65
2023/03/19 05:20:45;;;;;;;6.17;1.83;;;8.00;99.90;;;;;;5091741;28;20509;-66
2023/03/19 05:23:11;;;;;;;3.50;2.60;;;8.00;99.90;;;;;;5085258;28;20415;-66
2023/03/19 05:25:36;;;;;;;5.07;2.10;;;8.00;99.90;;;;;;5086906;28;20562;-66
2023/03/19 05:28:03;;;;;;;3.90;2.50;;;7.90;99.90;;;;;;5072197;28;20181;-65
2023/03/19 05:30:30;;;;;;;4.90;2.20;;;7.90;99.90;;;;;;5092381;28;20207;-66
2023/03/19 05:32:57;;;;;;;8.80;2.60;;;7.90;99.90;;;;;;5079816;28;20419;-65
2023/03/19 05:35:23;;;;;;;4.60;2.43;;;7.90;99.90;;;;;;5086315;28;20434;-66
2023/03/19 05:37:49;;;;;;;4.00;2.37;;;7.90;99.90;;;;;;5082688;28;20470;-65
2023/03/19 05:40:15;;;;;;;3.93;1.83;;;7.90;99.90;;;;;;5091873;28;20461;-66
2023/03/19 05:42:41;;;;;;;4.07;2.30;;;7.90;99.90;;;;;;5091876;28;20224;-66
2023/03/19 05:45:07;;;;;;;4.87;2.83;;;7.90;99.90;;;;;;5085782;28;20475;-65
2023/03/19 05:47:33;;;;;;;9.53;3.13;;;7.90;99.90;;;;;;5084918;28;20414;-66
2023/03/19 05:50:00;;;;;;;4.10;2.83;;;7.80;99.90;;;;;;5092235;28;20419;-66
2023/03/19 05:52:25;;;;;;;4.97;2.37;;;7.90;99.90;;;;;;5079339;28;20426;-66
2023/03/19 05:54:51;;;;;;;3.77;2.97;;;7.90;99.90;;;;;;5085815;28;20423;-65
2023/03/19 05:57:17;;;;;;;4.87;2.00;;;7.90;99.90;;;;;;5085152;28;20567;-66
2023/03/19 05:59:42;;;;;;;6.40;3.10;;;7.90;99.90;;;;;;5090575;28;20310;-65
2023/03/19 06:02:08;;;;;;;5.87;2.40;;;7.80;99.90;;;;;;5092431;28;20216;-66
2023/03/19 06:04:34;;;;;;;5.37;2.33;;;7.90;99.90;;;;;;5091789;28;20196;-66
2023/03/19 06:07:00;;;;;;;2.70;1.70;;;8.00;99.90;;;;;;5087386;28;20819;-65
2023/03/19 06:09:25;;;;;;;9.20;2.57;;;8.10;99.90;;;;;;5073801;28;20212;-65
2023/03/19 06:11:51;;;;;;;3.03;1.70;;;8.00;99.90;;;;;;5084204;28;20233;-66
2023/03/19 06:14:17;;;;;;;2.47;1.27;;;8.00;99.90;;;;;;5091369;28;20282;-65
2023/03/19 06:16:42;;;;;;;5.33;2.17;;;8.00;99.90;;;;;;5092180;28;20257;-66
2023/03/19 06:19:08;;;;;;;3.03;1.70;;;8.00;99.90;;;;;;5072473;28;20199;-65
2023/03/19 06:21:33;;;;;;;2.00;1.30;;;8.10;99.90;;;;;;5074930;28;20227;-67
2023/03/19 06:23:59;;;;;;;4.03;2.00;;;8.10;99.90;;;;;;5089870;28;20204;-66
2023/03/19 06:26:25;;;;;;;2.60;1.40;;;8.20;99.90;;;;;;5092209;28;20751;-67
2023/03/19 06:28:51;;;;;;;1.90;1.13;;;8.30;99.90;;;;;;5091378;28;20225;-67
2023/03/19 06:31:17;;;;;;;3.40;1.63;;;8.30;99.90;;;;;;5091788;28;20180;-66
2023/03/19 06:33:42;;;;;;;3.50;1.63;;;8.40;99.90;;;;;;5077887;28;20196;-67
2023/03/19 06:36:08;;;;;;;1.77;0.90;;;8.40;99.90;;;;;;5086311;28;20184;-67
2023/03/19 06:38:37;;;;;;;16.30;2.20;;;8.40;99.90;;;;;;5080266;28;20183;-67
2023/03/19 06:41:02;;;;;;;3.90;1.50;;;8.40;99.90;;;;;;5091788;28;20260;-67
2023/03/19 06:43:28;;;;;;;4.00;1.80;;;8.50;99.90;;;;;;5090855;28;20974;-67
2023/03/19 06:45:54;;;;;;;3.57;1.97;;;8.60;99.90;;;;;;5091608;28;20290;-67
2023/03/19 06:48:20;;;;;;;2.20;1.10;;;8.50;99.90;;;;;;5077279;28;20720;-67
2023/03/19 06:50:46;;;;;;;3.83;1.87;;;8.50;99.90;;;;;;5091597;28;20184;-67
2023/03/19 06:53:14;;;;;;;4.40;1.77;;;8.60;99.90;;;;;;5090907;28;20272;-67
2023/03/19 06:55:40;;;;;;;2.93;1.40;;;8.60;99.90;;;;;;5079085;28;20213;-65
2023/03/19 06:58:06;;;;;;;5.37;1.40;;;8.60;99.90;;;;;;5089785;28;20449;-66
2023/03/19 07:00:32;;;;;;;3.17;1.53;;;8.70;99.90;;;;;;5079253;28;20181;-66
2023/03/19 07:02:58;;;;;;;2.23;1.60;;;8.70;99.90;;;;;;5089192;28;20184;-66
2023/03/19 07:05:24;;;;;;;3.40;1.23;;;8.80;99.90;;;;;;5091100;28;20795;-66
2023/03/19 07:07:50;;;;;;;7.50;2.20;;;8.80;99.90;;;;;;5078964;28;20488;-65
2023/03/19 07:10:20;;;;;;;8.00;1.50;;;8.90;99.90;;;;;;5071450;28;20189;-66
2023/03/19 07:12:46;;;;;;;3.13;1.60;;;8.90;99.90;;;;;;5088229;28;20184;-66
2023/03/19 07:15:12;;;;;;;2.53;1.60;;;8.90;99.90;;;;;;5090490;28;20471;-66
2023/03/19 07:17:37;;;;;;;5.13;1.80;;;8.90;99.90;;;;;;5084538;28;20222;-66
2023/03/19 07:20:03;;;;;;;4.30;1.70;;;9.10;99.90;;;;;;5080375;28;20422;-64
2023/03/19 07:22:29;;;;;;;2.60;1.27;;;9.10;99.90;;;;;;5078728;28;20183;-66
2023/03/19 07:24:54;;;;;;;2.43;1.03;;;9.20;99.90;;;;;;5090245;28;20211;-65
2023/03/19 07:27:20;;;;;;;1.70;0.90;;;9.30;99.90;;;;;;5076450;28;20173;-65
2023/03/19 07:29:46;;;;;;;5.13;1.77;;;9.30;99.90;;;;;;5089653;28;20203;-65
2023/03/19 07:32:12;;;;;;;4.00;1.70;;;9.40;99.90;;;;;;5083359;28;20492;-65
2023/03/19 07:34:37;;;;;;;3.40;1.70;;;9.50;99.90;;;;;;5077815;28;20184;-65
2023/03/19 07:37:04;;;;;;;8.97;3.13;;;9.60;99.90;;;;;;5082067;28;20191;-65
2023/03/19 07:39:29;;;;;;;4.67;2.20;;;9.70;99.90;;;;;;5083000;28;20188;-65
2023/03/19 07:41:55;;;;;;;2.40;1.13;;;9.80;99.90;;;;;;5089261;28;20441;-65
2023/03/19 07:44:20;;;;;;;4.17;1.40;;;9.90;99.90;;;;;;5089125;28;20226;-66
2023/03/19 07:46:46;;;;;;;1.57;0.87;;;9.90;99.90;;;;;;5089307;28;20180;-65
2023/03/19 07:49:11;;;;;;;3.60;1.00;;;10.00;99.90;;;;;;5089484;28;20216;-65
2023/03/19 07:51:37;;;;;;;2.00;1.40;;;10.10;99.90;;;;;;5089525;28;20185;-65
2023/03/19 07:54:03;;;;;;;5.30;2.50;;;10.10;99.90;;;;;;5089505;28;20219;-68
2023/03/19 07:56:29;;;;;;;4.73;2.60;;;10.20;99.90;;;;;;5075869;28;20274;-66
2023/03/19 07:58:55;;;;;;;7.00;2.23;;;10.20;99.90;;;;;;5089219;28;20263;-67
2023/03/19 08:01:20;;;;;;;2.37;1.17;;;10.30;99.90;;;;;;5083232;28;20650;-67
2023/03/19 08:03:47;;;;;;;1.63;0.90;;;10.40;99.90;;;;;;5080197;28;20632;-67
2023/03/19 08:06:13;;;;;;;8.00;1.40;;;10.40;99.90;;;;;;5089284;28;20180;-65
2023/03/19 08:08:39;;;;;;;2.43;1.10;;;10.40;99.90;;;;;;5070570;28;20880;-66
2023/03/19 08:11:06;;;;;;;2.27;1.10;;;10.50;99.90;;;;;;5077774;28;20781;-66
2023/03/19 08:13:32;;;;;;;1.90;1.10;;;10.50;99.90;;;;;;5089447;28;20410;-66
2023/03/19 08:15:57;;;;;;;2.50;1.40;;;10.60;99.90;;;;;;5089867;28;20415;-66
2023/03/19 08:18:23;;;;;;;2.13;1.10;;;10.70;99.90;;;;;;5089709;28;20176;-66
2023/03/19 08:20:49;;;;;;;1.60;0.80;;;10.70;99.90;;;;;;5087934;28;20541;-66
2023/03/19 08:23:15;;;;;;;4.03;1.33;;;10.80;99.90;;;;;;5069687;28;20530;-66
2023/03/19 08:25:41;;;;;;;1.67;0.90;;;10.90;99.90;;;;;;5088899;28;20250;-66
2023/03/19 08:28:08;;;;;;;4.03;1.67;;;11.00;99.90;;;;;;5089617;28;20219;-66
2023/03/19 08:30:37;;;;;;;2.30;1.00;;;11.20;99.90;;;;;;5089787;28;20423;-65
2023/03/19 08:33:03;;;;;;;2.03;1.13;;;11.30;99.90;;;;;;5076343;28;20727;-66
2023/03/19 08:35:28;;;;;;;4.83;1.53;;;11.40;99.90;;;;;;5076132;28;20463;-65
2023/03/19 08:37:55;;;;;;;7.20;1.87;;;11.50;99.90;;;;;;5079193;28;20298;-66
2023/03/19 08:40:21;;;;;;;2.27;1.20;;;11.60;99.90;;;;;;5089883;28;20658;-66
2023/03/19 08:42:47;;;;;;;2.87;1.40;;;11.80;99.90;;;;;;5088785;28;20522;-66
2023/03/19 08:45:14;;;;;;;2.30;1.00;;;11.90;99.90;;;;;;5089709;28;20454;-66
2023/03/19 08:47:40;;;;;;;3.00;1.07;;;12.00;99.90;;;;;;5089469;28;20426;-66
2023/03/19 08:50:07;;;;;;;4.80;0.97;;;12.00;99.90;;;;;;5089924;28;20422;-66
2023/03/19 08:52:33;;;;;;;3.57;0.93;;;12.10;99.90;;;;;;5089145;28;20758;-66
2023/03/19 08:54:58;;;;;;;2.27;0.77;;;12.30;99.90;;;;;;5089805;28;20902;-66
2023/03/19 08:57:24;;;;;;;2.43;1.10;;;12.20;99.90;;;;;;5089382;28;20513;-66
2023/03/19 08:59:52;;;;;;;2.60;0.93;;;12.30;99.90;;;;;;5089413;28;20177;-66
2023/03/19 09:02:18;;;;;;;1.93;1.10;;;12.30;99.90;;;;;;5089324;28;20204;-65
2023/03/19 09:04:44;;;;;;;2.27;1.00;;;12.30;99.90;;;;;;5089232;28;20927;-65
2023/03/19 09:07:12;;;;;;;1.80;0.83;;;12.30;99.90;;;;;;5083403;28;20288;-65
2023/03/19 09:09:39;;;;;;;2.53;1.10;;;12.30;99.90;;;;;;5072037;28;20465;-65
2023/03/19 09:12:06;;;;;;;1.97;0.97;;;12.40;99.90;;;;;;5083558;28;20492;-65
2023/03/19 09:14:35;;;;;;;4.73;1.40;;;12.50;99.90;;;;;;5088837;28;20422;-65
2023/03/19 09:17:01;;;;;;;2.67;1.13;;;12.50;99.90;;;;;;5089488;28;20422;-66
2023/03/19 09:19:27;;;;;;;3.10;1.30;;;12.80;99.90;;;;;;5089936;28;20421;-65
2023/03/19 09:21:53;;;;;;;6.60;1.30;;;13.00;99.90;;;;;;5079039;28;20436;-66
2023/03/19 09:24:18;;;;;;;2.53;1.07;;;13.60;99.80;;;;;;5092731;28;20237;-66
2023/03/19 09:26:45;;;;;;;1.63;1.00;;;14.40;97.50;;;;;;5092535;28;20263;-66
2023/03/19 09:29:11;;;;;;;3.20;1.00;;;14.90;96.30;;;;;;5092448;28;20654;-66
2023/03/19 09:31:37;;;;;;;3.43;1.43;;;15.10;94.00;;;;;;5077534;28;20469;-66
2023/03/19 09:34:03;;;;;;;1.60;0.80;;;14.90;93.70;;;;;;5080872;28;20433;-65
2023/03/19 09:36:28;;;;;;;6.17;1.20;;;15.20;93.70;;;;;;5077858;28;20685;-66
2023/03/19 09:38:54;;;;;;;2.97;1.33;;;15.00;93.20;;;;;;5077658;28;20188;-66
2023/03/19 09:41:44;;;;;;;2.47;1.20;;;15.00;93.00;;;;;;5071274;28;20193;-66
2023/03/19 09:44:19;;;;;;;2.23;1.20;;;14.90;92.50;;;;;;5063370;28;20486;-65
2023/03/19 09:46:50;;;;;;;1.70;1.00;;;15.00;92.60;;;;;;5073937;28;20738;-65
2023/03/19 09:49:29;;;;;;;2.13;1.27;;;14.90;92.40;;;;;;5075364;28;20418;-65
2023/03/19 09:52:16;;;;;;;2.43;1.27;;;14.70;92.60;;;;;;5085504;28;20410;-65
2023/03/19 09:54:47;;;;;;;2.23;0.63;;;14.60;92.80;;;;;;5092915;28;20411;-65
2023/03/19 09:57:13;;;;;;;2.23;1.20;;;14.50;93.50;;;;;;5093306;28;20906;-65
2023/03/19 09:59:39;;;;;;;2.67;1.53;;;14.50;94.60;;;;;;5092427;28;20446;-66
2023/03/19 10:02:23;;;;;;;3.73;1.57;;;14.20;93.50;;;;;;5093004;28;20418;-65
2023/03/19 10:05:04;;;;;;;3.87;1.67;;;14.10;94.10;;;;;;5092477;28;20454;-65
2023/03/19 10:08:15;;;;;;;4.93;1.20;;;14.20;94.30;;;;;;5083802;28;20415;-66
2023/03/19 10:10:53;;;;;;;6.17;1.20;;;14.20;94.40;;;;;;5069402;28;20431;-65
2023/03/19 10:13:33;;;;;;;2.07;0.90;;;14.30;93.80;;;;;;5092060;28;20406;-65
2023/03/19 10:16:00;;;;;;;1.97;1.07;;;14.20;93.60;;;;;;5092671;28;20509;-65
2023/03/19 10:18:33;;;;;;;7.53;1.43;;;14.10;95.30;;;;;;5092382;28;20414;-65
2023/03/19 10:21:09;;;;;;;5.87;1.90;;;14.10;95.00;;;;;;5088973;28;20782;-66
2023/03/19 10:23:49;;;;;;;7.83;1.43;;;14.20;94.60;;;;;;5087111;28;20410;-65
2023/03/19 10:26:17;;;;;;;3.73;1.13;;;14.30;94.30;;;;;;5092266;28;20474;-65
2023/03/19 10:28:50;;;;;;;3.00;1.20;;;14.50;94.20;;;;;;5091813;28;20442;-65
2023/03/19 10:31:28;;;;;;;4.43;1.50;;;14.60;94.60;;;;;;5092015;28;20411;-65
2023/03/19 10:34:33;;;;;;;6.57;1.77;;;14.90;94.00;;;;;;5067537;28;20961;-65
2023/03/19 10:37:21;;;;;;;2.50;1.13;;;14.90;92.90;;;;;;5087843;28;20438;-65
2023/03/19 10:39:54;;;;;;;3.83;1.53;;;14.70;92.00;;;;;;5073422;28;20411;-65
2023/03/19 10:42:38;;;;;;;11.10;1.70;;;14.90;92.40;;;;;;5082641;28;20442;-65
2023/03/19 10:45:25;;;;;;;7.33;1.67;;;15.00;90.70;;;;;;5085586;28;20551;-65
2023/03/19 10:47:51;;;;;;;2.03;1.30;;;15.20;91.80;;;;;;5086483;28;20910;-65
2023/03/19 10:50:27;;;;;;;5.50;1.43;;;15.30;90.70;;;;;;5082878;28;20984;-65
2023/03/19 10:53:22;;;;;;;3.30;1.43;;;15.20;90.50;;;;;;5087067;28;20422;-65
2023/03/19 10:55:59;;;;;;;2.37;1.20;;;15.20;90.80;;;;;;5090608;28;20534;-65
2023/03/19 10:58:27;;;;;;;4.40;1.60;;;15.30;89.40;;;;;;5079069;28;20455;-65
2023/03/19 11:01:11;;;;;;;3.37;1.23;;;15.30;90.10;;;;;;5089180;28;20902;-65
2023/03/19 11:03:58;;;;;;;2.70;1.30;;;15.20;88.90;;;;;;5081842;28;20414;-65
2023/03/19 11:06:34;;;;;;;2.37;1.00;;;15.10;90.00;;;;;;5090818;28;20421;-65
2023/03/19 11:09:01;;;;;;;3.00;1.20;;;15.20;90.20;;;;;;5069156;28;20770;-65
2023/03/19 11:11:29;;;;;;;2.90;1.07;;;15.40;90.40;;;;;;5079535;28;20498;-65
2023/03/19 11:13:55;;;;;;;4.13;1.00;;;15.40;89.10;;;;;;5090318;28;20722;-65
2023/03/19 11:16:20;;;;;;;4.63;2.03;;;15.40;90.00;;;;;;5082369;28;20502;-67
2023/03/19 11:18:48;;;;;;;6.83;1.53;;;15.50;88.40;;;;;;5085953;28;20460;-67
2023/03/19 11:21:29;;;;;;;2.30;1.23;;;15.60;88.20;;;;;;5084766;28;20169;-67
2023/03/19 11:24:03;;;;;;;4.07;2.00;;;15.60;90.70;;;;;;5087781;28;20433;-67
2023/03/19 11:26:29;;;;;;;6.67;1.67;;;15.80;90.20;;;;;;5079408;28;20883;-67
2023/03/19 11:29:04;;;;;;;4.17;1.20;;;15.90;89.40;;;;;;5083905;28;20419;-66
2023/03/19 11:31:40;;;;;;;1.90;1.10;;;16.00;87.00;;;;;;5082883;28;20414;-67
2023/03/19 11:34:19;;;;;;;2.80;1.27;;;16.00;88.70;;;;;;5077831;28;20449;-67
2023/03/19 11:37:13;;;;;;;3.10;1.50;;;15.70;87.50;;;;;;5087637;28;20410;-67
2023/03/19 11:39:50;;;;;;;2.13;1.07;;;15.60;89.10;;;;;;5072241;28;20411;-67
2023/03/19 11:42:44;;;;;;;5.70;1.57;;;15.50;88.20;;;;;;5080584;28;20435;-67
2023/03/19 11:46:15;;;;;;;4.10;1.73;;;15.40;88.90;;;;;;5089792;28;20547;-68
2023/03/19 11:48:53;;;;;;;3.03;1.33;;;15.40;88.50;;;;;;5055720;28;20426;-67
2023/03/19 11:51:29;;;;;;;1.80;0.80;;;15.40;89.10;;;;;;5076245;28;20835;-67
2023/03/19 11:54:19;;;;;;;5.80;1.30;;;15.40;88.70;;;;;;5090312;28;20441;-67
2023/03/19 11:57:11;;;;;;;2.40;1.20;;;15.40;88.30;;;;;;5090458;28;20410;-67
2023/03/19 12:00:07;;;;;;;2.40;0.97;;;15.50;88.90;;;;;;5089702;28;20418;-67
2023/03/19 12:03:07;;;;;;;3.40;1.00;;;15.60;89.10;;;;;;5089484;28;20450;-67
2023/03/19 12:05:58;;;;;;;2.60;1.33;;;15.50;88.30;;;;;;5066890;28;20474;-65
2023/03/19 12:08:30;;;;;;;1.50;0.73;;;15.50;90.30;;;;;;5072547;28;20426;-65
2023/03/19 12:11:30;;;;;;;3.00;1.00;;;15.50;90.00;;;;;;5074632;28;20410;-65
2023/03/19 12:14:08;;;;;;;3.00;1.50;;;15.70;89.30;;;;;;5089632;28;20413;-65
2023/03/19 12:16:41;;;;;;;2.23;0.90;;;16.00;89.00;;;;;;5079364;28;20408;-65
2023/03/19 12:19:27;;;;;;;2.50;1.20;;;15.90;87.80;;;;;;5088585;28;20419;-65
2023/03/19 12:21:53;;;;;;;2.10;1.27;;;15.70;88.10;;;;;;5077201;28;20419;-65
2023/03/19 12:25:01;;;;;;;3.73;1.00;;;15.60;90.20;;;;;;5077674;28;20450;-65
2023/03/19 12:27:45;;;;;;;4.77;1.37;;;15.70;90.50;;;;;;5067326;28;20272;-65
2023/03/19 12:30:32;;;;;;;2.50;1.10;;;15.90;90.10;;;;;;5075741;28;20457;-65
2023/03/19 12:33:13;;;;;;;2.60;1.30;;;16.00;87.60;;;;;;5076785;28;20416;-65
2023/03/19 12:35:40;;;;;;;5.80;1.47;;;16.10;89.50;;;;;;5083864;28;20425;-65
2023/03/19 12:38:44;;;;;;;4.93;1.20;;;16.10;88.20;;;;;;5079824;28;20422;-65
2023/03/19 12:41:23;;;;;;;3.10;1.13;;;16.00;87.50;;;;;;5083597;28;20828;-65
2023/03/19 12:44:00;;;;;;;2.70;1.03;;;15.70;88.10;;;;;;5089149;28;20426;-65
2023/03/19 12:46:32;;;;;;;2.93;0.83;;;15.60;88.60;;;;;;5089347;28;20441;-65
2023/03/19 12:49:02;;;;;;;3.17;1.50;;;15.60;88.50;;;;;;5089681;28;20778;-65
2023/03/19 12:51:34;;;;;;;2.93;0.70;;;15.50;90.10;;;;;;5075595;28;20418;-65
2023/03/19 12:54:10;;;;;;;2.43;1.20;;;15.60;90.00;;;;;;5091107;28;20441;-65
2023/03/19 12:57:07;;;;;;;2.60;1.03;;;15.60;88.80;;;;;;5093377;28;20847;-68
2023/03/19 13:00:02;;;;;;;3.20;1.33;;;15.70;89.90;;;;;;5092634;28;20915;-67
2023/03/19 13:02:42;;;;;;;1.70;1.00;;;15.70;86.40;;;;;;5079650;28;20458;-67
2023/03/19 13:05:22;;;;;;;3.17;1.00;;;15.70;86.40;;;;;;5092971;28;20481;-67